Time;durP1;ratioP1;P1;durP2;ratioP2;P2;SDS_P1;SDS_P2;PMS_P1;PMS_P2;Temp;Humidity;BMP_temperature;BMP_pressure;BME280_temperature;BME280_humidity;BME280_pressure;Samples;Min_cycle;Max_cycle;Signal;HPM_P1;HPM_P2
2022/12/30 00:00:01;;;;;;;19.88;4.70;;;6.00;99.90;;;;;;5041693;28;20048;-82
2022/12/30 00:02:26;;;;;;;17.08;4.55;;;6.00;99.90;;;;;;5040120;28;20101;-81
2022/12/30 00:04:52;;;;;;;19.75;4.43;;;6.00;99.90;;;;;;5032800;28;20041;-82
2022/12/30 00:07:21;;;;;;;17.67;5.13;;;5.90;99.90;;;;;;5028971;23;20054;-75
2022/12/30 00:09:46;;;;;;;19.63;4.47;;;5.90;99.90;;;;;;4977635;28;20125;-75
2022/12/30 00:34:28;;;;;;;21.13;4.00;;;5.70;99.90;;;;;;4986228;28;20046;-75
2022/12/30 00:36:54;;;;;;;17.27;3.67;;;5.70;99.90;;;;;;4977611;28;20129;-75
2022/12/30 00:39:20;;;;;;;20.88;5.13;;;5.70;99.90;;;;;;4967307;28;20045;-75
2022/12/30 00:44:32;;;;;;;15.15;3.60;;;5.70;99.90;;;;;;4992197;28;20077;-76
2022/12/30 00:46:59;;;;;;;16.77;4.47;;;5.70;99.90;;;;;;4976951;28;20097;-75
2022/12/30 00:57:37;;;;;;;13.55;4.10;;;5.70;99.90;;;;;;4992336;28;20047;-75
2022/12/30 01:00:06;;;;;;;15.27;3.80;;;5.70;99.90;;;;;;4991362;28;20038;-75
2022/12/30 01:02:31;;;;;;;14.27;3.70;;;5.70;99.90;;;;;;4971931;28;20125;-75
2022/12/30 01:04:57;;;;;;;16.35;3.92;;;5.70;99.90;;;;;;4976398;28;20126;-75
2022/12/30 01:07:23;;;;;;;16.55;3.28;;;5.60;99.90;;;;;;4975822;28;20081;-75
2022/12/30 01:09:49;;;;;;;18.48;4.45;;;5.70;99.90;;;;;;4979455;28;20070;-75
2022/12/30 01:12:15;;;;;;;15.50;3.92;;;5.70;99.90;;;;;;4991687;28;20030;-75
2022/12/30 01:14:49;;;;;;;18.50;3.97;;;5.60;99.90;;;;;;4977189;28;20408;-75
2022/12/30 01:17:25;;;;;;;19.95;4.55;;;5.60;99.90;;;;;;4969534;28;20329;-75
2022/12/30 01:19:51;;;;;;;17.55;4.15;;;5.60;99.90;;;;;;4977168;28;20271;-75
2022/12/30 01:22:17;;;;;;;18.30;4.18;;;5.60;99.90;;;;;;4970953;28;20042;-75
2022/12/30 01:24:42;;;;;;;16.70;4.05;;;5.60;99.90;;;;;;4976908;28;20049;-75
2022/12/30 01:27:08;;;;;;;15.05;3.88;;;5.60;99.90;;;;;;4974863;28;20405;-75
2022/12/30 01:29:37;;;;;;;20.95;4.63;;;5.60;99.90;;;;;;4992995;28;20559;-75
2022/12/30 01:32:09;;;;;;;13.77;3.83;;;5.50;99.90;;;;;;4970415;28;20081;-75
2022/12/30 01:34:35;;;;;;;19.02;4.32;;;5.50;99.90;;;;;;4983101;28;20037;-75
2022/12/30 01:37:01;;;;;;;17.63;4.15;;;5.50;99.90;;;;;;4976263;28;20492;-75
2022/12/30 01:39:26;;;;;;;15.75;4.05;;;5.50;99.90;;;;;;4974779;28;20042;-75
2022/12/30 01:41:54;;;;;;;16.48;4.38;;;5.50;99.90;;;;;;4975709;28;20038;-75
2022/12/30 01:44:44;;;;;;;18.85;5.00;;;5.50;99.90;;;;;;4976583;28;20126;-75
2022/12/30 01:47:14;;;;;;;20.67;5.35;;;5.50;99.90;;;;;;4973721;28;20519;-75
2022/12/30 01:49:44;;;;;;;20.75;5.13;;;5.50;99.90;;;;;;4973298;28;20042;-75
2022/12/30 01:52:10;;;;;;;15.70;5.10;;;5.50;99.90;;;;;;4972853;28;20042;-75
2022/12/30 01:54:36;;;;;;;16.48;4.38;;;5.50;99.90;;;;;;4976107;28;20092;-75
2022/12/30 01:57:05;;;;;;;18.25;4.50;;;5.40;99.90;;;;;;4976270;28;20465;-75
2022/12/30 01:59:33;;;;;;;17.23;4.45;;;5.40;99.90;;;;;;4966136;28;20035;-75
2022/12/30 02:02:00;;;;;;;18.02;4.03;;;5.40;99.90;;;;;;4980389;28;20046;-75
2022/12/30 02:04:28;;;;;;;20.55;4.07;;;5.40;99.90;;;;;;4974941;28;20034;-75
2022/12/30 02:07:11;;;;;;;21.30;4.13;;;5.40;99.90;;;;;;4975787;28;20484;-75
2022/12/30 02:09:38;;;;;;;21.85;4.47;;;5.40;99.90;;;;;;4973429;28;20026;-75
2022/12/30 02:12:05;;;;;;;17.75;3.88;;;5.40;99.90;;;;;;4973803;28;20038;-75
2022/12/30 02:14:36;;;;;;;13.43;3.78;;;5.40;99.90;;;;;;4976306;28;20125;-75
2022/12/30 02:17:20;;;;;;;14.18;4.00;;;5.30;99.90;;;;;;4975469;28;20042;-75
2022/12/30 02:19:57;;;;;;;14.80;3.33;;;5.30;99.90;;;;;;4974959;28;20085;-75
2022/12/30 02:22:38;;;;;;;21.90;4.65;;;5.30;99.90;;;;;;4984829;28;20038;-75
2022/12/30 02:25:22;;;;;;;15.07;3.75;;;5.20;99.90;;;;;;4975486;28;20066;-75
2022/12/30 02:27:58;;;;;;;13.20;3.10;;;5.20;99.90;;;;;;4974140;28;20100;-75
2022/12/30 02:30:39;;;;;;;19.17;4.25;;;5.20;99.90;;;;;;4966504;28;20074;-75
2022/12/30 02:33:10;;;;;;;17.02;3.65;;;5.20;99.90;;;;;;4970280;28;20046;-75
2022/12/30 02:35:51;;;;;;;15.43;4.00;;;5.20;99.90;;;;;;4976473;28;20100;-75
2022/12/30 02:38:47;;;;;;;18.10;4.45;;;5.20;99.90;;;;;;4983415;28;20088;-75
2022/12/30 02:44:36;;;;;;;18.00;3.75;;;5.10;99.90;;;;;;4984189;28;20131;-75
2022/12/30 02:47:12;;;;;;;17.33;3.67;;;5.10;99.90;;;;;;4971161;28;20547;-75
2022/12/30 02:49:40;;;;;;;16.90;3.47;;;5.10;99.90;;;;;;4975419;28;20336;-75
2022/12/30 02:52:16;;;;;;;12.80;3.70;;;5.00;99.90;;;;;;4959749;28;20030;-75
2022/12/30 02:54:47;;;;;;;15.18;3.15;;;5.00;99.90;;;;;;4975406;28;20034;-75
2022/12/30 02:57:33;;;;;;;17.95;3.58;;;5.00;99.90;;;;;;4974939;28;20034;-75
2022/12/30 03:06:42;;;;;;;17.23;4.05;;;4.90;99.90;;;;;;4991479;28;20409;-75
2022/12/30 03:09:29;;;;;;;20.55;3.53;;;4.90;99.90;;;;;;4975021;28;20054;-75
2022/12/30 03:12:13;;;;;;;20.90;4.20;;;4.90;99.90;;;;;;4981805;28;20042;-76
2022/12/30 03:14:52;;;;;;;14.00;3.58;;;4.80;99.90;;;;;;4975051;28;20512;-75
2022/12/30 03:17:30;;;;;;;14.48;4.13;;;4.80;99.90;;;;;;4955405;28;20138;-75
2022/12/30 03:20:06;;;;;;;15.80;3.55;;;4.80;99.90;;;;;;4954558;28;20466;-75
2022/12/30 03:28:06;;;;;;;14.85;4.18;;;4.80;99.90;;;;;;4989641;28;20049;-75
2022/12/30 03:30:35;;;;;;;15.98;3.85;;;4.80;99.90;;;;;;4974105;28;20026;-75
2022/12/30 03:33:01;;;;;;;12.60;3.63;;;4.80;99.90;;;;;;4973895;28;20047;-75
2022/12/30 03:35:28;;;;;;;11.85;3.58;;;4.70;99.90;;;;;;4974379;28;20231;-75
2022/12/30 03:37:56;;;;;;;13.43;3.65;;;4.70;99.90;;;;;;4971513;28;20042;-75
2022/12/30 03:40:32;;;;;;;13.25;3.72;;;4.70;99.90;;;;;;4989585;28;20050;-75
2022/12/30 03:42:59;;;;;;;16.35;4.30;;;4.60;99.90;;;;;;4974575;28;20126;-75
2022/12/30 03:45:25;;;;;;;16.70;4.25;;;4.60;99.90;;;;;;4972326;28;20073;-75
2022/12/30 03:47:50;;;;;;;17.63;3.80;;;4.50;99.90;;;;;;4974097;28;20124;-75
2022/12/30 03:50:16;;;;;;;12.48;4.22;;;4.50;99.90;;;;;;4974496;28;20463;-75
2022/12/30 03:52:41;;;;;;;14.00;4.03;;;4.50;99.90;;;;;;4967892;28;20057;-75
2022/12/30 03:55:07;;;;;;;13.18;3.55;;;4.50;99.90;;;;;;4974392;28;20038;-75
2022/12/30 03:57:33;;;;;;;17.63;4.18;;;4.40;99.90;;;;;;4966550;28;20173;-75
2022/12/30 03:59:59;;;;;;;19.02;3.83;;;4.40;99.90;;;;;;4989712;28;20494;-75
2022/12/30 04:02:25;;;;;;;15.98;4.55;;;4.30;99.90;;;;;;4974739;28;20073;-75
2022/12/30 04:04:51;;;;;;;15.48;5.75;;;4.40;99.90;;;;;;4972256;28;20073;-75
2022/12/30 04:07:17;;;;;;;17.50;4.78;;;4.30;99.90;;;;;;4984775;28;20128;-75
2022/12/30 04:09:43;;;;;;;15.13;4.78;;;4.30;99.90;;;;;;4970934;28;20074;-75
2022/12/30 04:12:09;;;;;;;19.67;5.10;;;4.30;99.90;;;;;;4990914;28;20092;-75
2022/12/30 04:14:35;;;;;;;15.43;5.05;;;4.30;99.90;;;;;;4974652;28;20038;-75
2022/12/30 04:17:00;;;;;;;13.27;5.05;;;4.30;99.90;;;;;;4990508;28;20038;-75
2022/12/30 04:19:26;;;;;;;15.10;4.75;;;4.30;99.90;;;;;;4974012;28;20026;-75
2022/12/30 04:21:51;;;;;;;13.95;4.82;;;4.40;99.90;;;;;;4966048;28;20492;-75
2022/12/30 04:24:17;;;;;;;17.33;5.28;;;4.30;99.90;;;;;;4974013;28;20038;-75
2022/12/30 04:26:43;;;;;;;13.48;4.70;;;4.40;99.90;;;;;;4974242;28;20042;-75
2022/12/30 04:29:08;;;;;;;15.13;5.03;;;4.40;99.90;;;;;;4973945;28;20038;-75
2022/12/30 04:31:34;;;;;;;16.13;5.15;;;4.30;99.90;;;;;;4974893;28;20400;-75
2022/12/30 04:34:00;;;;;;;20.95;5.85;;;4.30;99.90;;;;;;4985592;28;20035;-75
2022/12/30 04:36:25;;;;;;;16.67;4.95;;;4.30;99.90;;;;;;4993581;28;20038;-75
2022/12/30 04:38:51;;;;;;;14.55;4.72;;;4.30;99.90;;;;;;4977547;28;20049;-75
2022/12/30 04:41:19;;;;;;;14.88;5.63;;;4.30;99.90;;;;;;4976532;28;20038;-75
2022/12/30 04:43:46;;;;;;;17.35;5.18;;;4.20;99.90;;;;;;4987459;28;20039;-75
2022/12/30 04:46:12;;;;;;;16.70;4.97;;;4.20;99.90;;;;;;4993826;28;20101;-75
2022/12/30 04:48:38;;;;;;;14.00;4.82;;;4.20;99.90;;;;;;4977081;28;20113;-75
2022/12/30 04:51:04;;;;;;;13.75;5.13;;;4.10;99.90;;;;;;4959203;28;20456;-75
2022/12/30 04:53:30;;;;;;;18.90;5.20;;;4.20;99.90;;;;;;4964003;28;20124;-75
2022/12/30 04:55:56;;;;;;;23.60;5.07;;;4.20;99.90;;;;;;4975754;28;20081;-75
2022/12/30 04:58:23;;;;;;;14.90;4.78;;;4.10;99.90;;;;;;4976880;28;20100;-75
2022/12/30 05:00:50;;;;;;;18.55;4.55;;;4.10;99.90;;;;;;4977380;28;20084;-75
2022/12/30 05:03:15;;;;;;;14.15;4.85;;;4.10;99.90;;;;;;4972511;28;20034;-75
2022/12/30 05:05:41;;;;;;;19.65;4.70;;;4.00;99.90;;;;;;4976394;28;20113;-75
2022/12/30 05:08:07;;;;;;;17.33;4.60;;;4.10;99.90;;;;;;4977095;28;20042;-75
2022/12/30 05:10:34;;;;;;;14.77;4.55;;;4.10;99.90;;;;;;4977007;28;20045;-75
2022/12/30 05:13:00;;;;;;;18.90;4.75;;;4.10;99.90;;;;;;4976511;28;20038;-75
2022/12/30 05:15:25;;;;;;;16.70;5.32;;;4.10;99.90;;;;;;4969249;28;20043;-75
2022/12/30 05:17:51;;;;;;;15.07;4.88;;;4.10;99.90;;;;;;4976507;28;20042;-75
2022/12/30 05:20:17;;;;;;;17.52;4.93;;;4.20;99.90;;;;;;4992987;28;20046;-75
2022/12/30 05:22:43;;;;;;;14.07;4.43;;;4.10;99.90;;;;;;4976436;28;20412;-75
2022/12/30 05:27:53;;;;;;;12.70;4.15;;;4.10;99.90;;;;;;4986116;28;20101;-75
2022/12/30 05:30:19;;;;;;;14.88;4.40;;;4.00;99.90;;;;;;4981676;28;20014;-75
2022/12/30 05:32:45;;;;;;;15.43;4.43;;;4.10;99.90;;;;;;4987500;28;20134;-75
2022/12/30 05:35:10;;;;;;;17.63;4.55;;;4.10;99.90;;;;;;4976908;28;20041;-75
2022/12/30 05:37:39;;;;;;;17.08;5.32;;;4.10;99.90;;;;;;4975045;28;20037;-76
2022/12/30 05:40:06;;;;;;;12.40;3.85;;;4.10;99.90;;;;;;4976542;28;20451;-75
2022/12/30 05:42:31;;;;;;;18.02;4.03;;;4.00;99.90;;;;;;4966154;28;20117;-75
2022/12/30 05:44:57;;;;;;;10.82;3.60;;;4.10;99.90;;;;;;4977792;28;20193;-75
2022/12/30 05:47:23;;;;;;;15.07;4.35;;;4.10;99.90;;;;;;4976201;28;20499;-75
2022/12/30 05:49:48;;;;;;;14.50;4.07;;;4.00;99.90;;;;;;4991056;28;20458;-75
2022/12/30 05:52:14;;;;;;;13.23;3.70;;;4.00;99.90;;;;;;4967270;28;20042;-75
2022/12/30 05:54:41;;;;;;;16.48;4.45;;;4.10;99.90;;;;;;4976297;28;20120;-75
2022/12/30 05:57:06;;;;;;;17.52;4.20;;;4.10;99.90;;;;;;4976049;28;20493;-75
2022/12/30 05:59:32;;;;;;;13.75;4.28;;;4.00;99.90;;;;;;4975998;28;20042;-75
2022/12/30 06:01:58;;;;;;;13.55;3.47;;;4.10;99.90;;;;;;4975969;28;20042;-75
2022/12/30 06:04:23;;;;;;;21.85;4.18;;;4.10;99.90;;;;;;4972035;28;20436;-75
2022/12/30 06:09:17;;;;;;;13.00;4.05;;;4.10;99.90;;;;;;5013966;28;20149;-80
2022/12/30 06:11:42;;;;;;;18.70;4.03;;;4.00;99.90;;;;;;4995583;28;20507;-81
2022/12/30 06:14:10;;;;;;;14.75;4.38;;;4.00;99.90;;;;;;5003365;28;20037;-81
2022/12/30 06:16:35;;;;;;;15.27;3.65;;;4.10;99.90;;;;;;5016885;28;20064;-81
2022/12/30 06:19:01;;;;;;;16.45;4.30;;;4.00;99.90;;;;;;4983062;28;20560;-81
2022/12/30 06:21:26;;;;;;;15.70;4.15;;;4.00;99.90;;;;;;4998874;28;20053;-81
2022/12/30 06:23:52;;;;;;;17.77;3.97;;;4.00;99.90;;;;;;4992136;28;20117;-81
2022/12/30 06:26:18;;;;;;;17.15;3.80;;;3.90;99.90;;;;;;5001477;28;20141;-81
2022/12/30 06:28:43;;;;;;;18.38;3.88;;;3.90;99.90;;;;;;4998275;28;20038;-81
2022/12/30 06:31:09;;;;;;;13.23;3.70;;;3.90;99.90;;;;;;4998213;28;20088;-81
2022/12/30 06:33:35;;;;;;;13.93;4.00;;;3.90;99.90;;;;;;4982333;28;20038;-81
2022/12/30 06:36:01;;;;;;;13.90;3.95;;;3.90;99.90;;;;;;5002329;28;20081;-81
2022/12/30 06:38:27;;;;;;;12.75;4.18;;;3.80;99.90;;;;;;4985420;28;20042;-81
2022/12/30 06:40:52;;;;;;;15.00;3.88;;;3.80;99.90;;;;;;4977236;28;20047;-81
2022/12/30 06:43:18;;;;;;;18.33;4.38;;;3.70;99.90;;;;;;4975972;28;20034;-81
2022/12/30 06:45:43;;;;;;;19.00;4.63;;;3.70;99.90;;;;;;5002075;28;20038;-81
2022/12/30 06:48:09;;;;;;;12.43;3.92;;;3.70;99.90;;;;;;4999220;28;20479;-81
2022/12/30 06:50:36;;;;;;;12.43;4.05;;;3.70;99.90;;;;;;4987533;28;20046;-80
2022/12/30 06:53:02;;;;;;;16.55;4.65;;;3.70;99.90;;;;;;4976149;28;20519;-81
2022/12/30 06:55:28;;;;;;;16.38;4.55;;;3.70;99.90;;;;;;4970007;28;20062;-81
2022/12/30 06:57:53;;;;;;;16.08;4.65;;;3.70;99.90;;;;;;4975901;28;20511;-81
2022/12/30 07:00:19;;;;;;;20.88;4.88;;;3.60;99.90;;;;;;4973100;28;20046;-80
2022/12/30 07:02:44;;;;;;;15.57;4.20;;;3.70;99.90;;;;;;4974389;28;20054;-80
2022/12/30 07:05:10;;;;;;;18.80;5.25;;;3.70;99.90;;;;;;4977682;28;20042;-80
2022/12/30 07:07:36;;;;;;;17.85;3.97;;;3.60;99.90;;;;;;4977675;28;20038;-80
2022/12/30 07:10:02;;;;;;;20.80;4.57;;;3.60;99.90;;;;;;4975564;28;20042;-79
2022/12/30 07:12:27;;;;;;;17.40;4.18;;;3.60;99.90;;;;;;4992969;28;20034;-80
2022/12/30 07:14:53;;;;;;;24.25;4.47;;;3.60;99.90;;;;;;4984274;28;20065;-79
2022/12/30 07:17:19;;;;;;;18.48;4.60;;;3.60;99.90;;;;;;4992328;28;20046;-79
2022/12/30 07:19:46;;;;;;;17.40;4.40;;;3.70;99.90;;;;;;4970708;28;20065;-77
2022/12/30 07:22:12;;;;;;;18.13;4.80;;;3.70;99.90;;;;;;4967960;28;20037;-79
2022/12/30 07:24:38;;;;;;;19.83;4.70;;;3.70;99.90;;;;;;4975495;28;20489;-80
2022/12/30 07:27:03;;;;;;;19.27;5.05;;;3.70;99.90;;;;;;4975280;28;20393;-79
2022/12/30 07:29:29;;;;;;;14.60;4.93;;;3.70;99.90;;;;;;4985671;28;20065;-80
2022/12/30 07:31:55;;;;;;;19.48;4.65;;;3.70;99.90;;;;;;4975814;28;20047;-80
2022/12/30 07:34:21;;;;;;;16.75;4.43;;;3.70;99.90;;;;;;4983423;28;20045;-79
2022/12/30 07:36:46;;;;;;;13.30;4.07;;;3.70;99.90;;;;;;4986304;28;20046;-78
2022/12/30 07:39:12;;;;;;;21.38;4.68;;;3.70;99.90;;;;;;4970808;28;20081;-78
2022/12/30 07:41:37;;;;;;;14.73;4.93;;;3.70;99.90;;;;;;4987690;28;20069;-78
2022/12/30 07:44:03;;;;;;;18.67;4.32;;;3.70;99.90;;;;;;4961725;28;20054;-78
2022/12/30 07:46:29;;;;;;;13.55;4.43;;;3.80;99.90;;;;;;4970706;28;20065;-77
2022/12/30 07:48:54;;;;;;;16.83;5.07;;;3.80;99.90;;;;;;4968198;28;20045;-77
2022/12/30 07:51:20;;;;;;;17.40;4.80;;;3.80;99.90;;;;;;4976769;28;20450;-78
2022/12/30 07:53:45;;;;;;;18.25;5.00;;;3.80;99.90;;;;;;4976311;28;20053;-77
2022/12/30 07:56:13;;;;;;;16.50;5.15;;;3.80;99.90;;;;;;4992069;28;20042;-77
2022/12/30 07:58:40;;;;;;;19.42;6.88;;;3.80;99.90;;;;;;4992367;28;20411;-77
2022/12/30 08:01:08;;;;;;;20.55;5.82;;;3.90;99.90;;;;;;4991207;28;20048;-77
2022/12/30 08:03:33;;;;;;;16.35;5.50;;;3.90;99.90;;;;;;4992418;28;20046;-77
2022/12/30 08:06:08;;;;;;;20.40;5.75;;;3.90;99.90;;;;;;4976570;28;20027;-77
2022/12/30 08:08:34;;;;;;;15.73;4.80;;;3.90;99.90;;;;;;4992942;28;20043;-76
2022/12/30 08:11:01;;;;;;;15.75;4.32;;;3.90;99.90;;;;;;4992538;28;20043;-77
2022/12/30 08:13:29;;;;;;;17.73;5.10;;;3.90;99.90;;;;;;4993921;28;20034;-78
2022/12/30 08:15:55;;;;;;;15.73;4.40;;;4.00;99.90;;;;;;4972191;28;20048;-78
2022/12/30 08:18:20;;;;;;;16.80;4.60;;;4.00;99.90;;;;;;4988755;28;20133;-78
2022/12/30 08:20:46;;;;;;;15.18;4.20;;;4.10;99.90;;;;;;4993592;28;20039;-78
2022/12/30 08:23:12;;;;;;;17.30;4.55;;;4.10;99.90;;;;;;4991038;28;20097;-76
2022/12/30 08:25:37;;;;;;;14.32;4.07;;;4.20;99.90;;;;;;4991846;28;20042;-77
2022/12/30 08:28:03;;;;;;;13.30;4.30;;;4.20;99.90;;;;;;4986451;28;20079;-78
2022/12/30 08:30:29;;;;;;;13.18;4.00;;;4.20;99.90;;;;;;4984333;28;20137;-78
2022/12/30 08:32:54;;;;;;;12.40;3.88;;;4.30;99.90;;;;;;4999703;28;20038;-78
2022/12/30 08:35:20;;;;;;;14.10;4.50;;;4.40;99.90;;;;;;5001998;28;20401;-78
2022/12/30 08:37:45;;;;;;;17.02;4.65;;;4.40;99.90;;;;;;5000697;28;20056;-78
2022/12/30 08:40:11;;;;;;;15.32;4.90;;;4.40;99.90;;;;;;4999468;28;20042;-77
2022/12/30 08:42:37;;;;;;;16.20;4.88;;;4.50;99.90;;;;;;5001369;28;20042;-78
2022/12/30 08:45:07;;;;;;;12.80;4.40;;;4.50;99.90;;;;;;5001567;28;20038;-77
2022/12/30 08:47:34;;;;;;;13.38;4.30;;;4.60;99.90;;;;;;5001317;28;20085;-78
2022/12/30 08:49:59;;;;;;;13.93;4.18;;;4.60;99.90;;;;;;4985217;28;20030;-78
2022/12/30 08:52:27;;;;;;;14.70;4.30;;;4.60;99.90;;;;;;5002199;28;20128;-78
2022/12/30 08:54:53;;;;;;;16.15;4.72;;;4.70;99.90;;;;;;5002693;28;20535;-78
2022/12/30 08:57:18;;;;;;;13.98;4.20;;;4.70;99.90;;;;;;5004440;28;20057;-78
2022/12/30 08:59:44;;;;;;;14.02;4.88;;;4.70;99.90;;;;;;4997995;28;20062;-78
2022/12/30 09:02:14;;;;;;;12.90;4.20;;;4.70;99.90;;;;;;4995075;28;20515;-77
2022/12/30 09:04:39;;;;;;;18.23;4.95;;;4.70;99.90;;;;;;4978433;28;20044;-78
2022/12/30 09:07:05;;;;;;;12.63;4.30;;;4.80;99.90;;;;;;4978492;28;20038;-78
2022/12/30 09:09:31;;;;;;;13.60;4.60;;;4.80;99.90;;;;;;4995478;28;20042;-77
2022/12/30 09:11:57;;;;;;;13.75;5.15;;;4.80;99.90;;;;;;4979503;28;20046;-78
2022/12/30 09:14:23;;;;;;;13.55;4.38;;;4.90;99.90;;;;;;4995531;28;20089;-78
2022/12/30 09:16:49;;;;;;;11.40;4.18;;;4.90;99.90;;;;;;4971166;28;20038;-77
2022/12/30 09:19:16;;;;;;;12.88;4.40;;;5.00;99.90;;;;;;4995575;28;20038;-78
2022/12/30 09:21:41;;;;;;;10.40;3.97;;;5.00;99.90;;;;;;4996766;28;20042;-78
2022/12/30 09:24:09;;;;;;;12.38;4.93;;;5.00;99.90;;;;;;4995614;28;20493;-78
2022/12/30 09:26:35;;;;;;;13.25;5.03;;;5.10;99.90;;;;;;4996250;28;20089;-78
2022/12/30 09:29:00;;;;;;;10.85;4.10;;;5.10;99.90;;;;;;4993307;28;20065;-78
2022/12/30 09:31:26;;;;;;;17.13;4.07;;;5.20;99.90;;;;;;4987748;28;20038;-78
2022/12/30 09:33:52;;;;;;;15.63;4.25;;;5.20;99.90;;;;;;4978932;28;20164;-78
2022/12/30 09:36:18;;;;;;;9.45;3.47;;;5.30;99.90;;;;;;4996635;28;20088;-78
2022/12/30 09:38:46;;;;;;;10.93;3.90;;;5.30;99.90;;;;;;4995970;28;20038;-78
2022/12/30 09:45:00;;;;;;;15.18;4.03;;;5.40;99.90;;;;;;4995172;28;20074;-78
2022/12/30 09:47:54;;;;;;;11.30;3.30;;;5.50;99.90;;;;;;4907843;28;20050;-78
2022/12/30 09:50:42;;;;;;;15.57;3.40;;;5.50;99.90;;;;;;4979553;28;20034;-78
2022/12/30 09:53:37;;;;;;;11.38;3.88;;;5.60;99.90;;;;;;4996448;28;20077;-77
2022/12/30 09:56:26;;;;;;;10.45;3.15;;;5.60;99.90;;;;;;4996578;28;20042;-77
2022/12/30 09:58:54;;;;;;;10.05;3.53;;;5.70;99.90;;;;;;4986441;28;20096;-78
2022/12/30 10:01:23;;;;;;;13.80;3.10;;;5.70;99.90;;;;;;4979579;28;20493;-78
2022/12/30 10:03:52;;;;;;;9.77;3.15;;;5.80;99.90;;;;;;4996799;28;20042;-78
2022/12/30 10:06:21;;;;;;;8.02;2.95;;;5.80;99.90;;;;;;4997202;28;20042;-78
2022/12/30 10:09:08;;;;;;;9.23;3.60;;;5.80;99.90;;;;;;4980077;28;20054;-78
2022/12/30 10:12:05;;;;;;;14.23;3.47;;;5.90;99.90;;;;;;4996818;28;20096;-78
2022/12/30 10:14:51;;;;;;;9.05;2.65;;;5.90;99.90;;;;;;4996508;28;20116;-78
2022/12/30 10:17:39;;;;;;;8.63;2.80;;;6.00;99.90;;;;;;4990454;28;20040;-78
2022/12/30 10:20:28;;;;;;;7.60;3.38;;;6.00;99.90;;;;;;4997553;28;20046;-78
2022/12/30 10:23:32;;;;;;;8.18;2.85;;;6.10;99.90;;;;;;4997464;28;20455;-78
2022/12/30 10:26:10;;;;;;;10.35;3.33;;;6.10;99.90;;;;;;4981522;28;20133;-78
2022/12/30 10:28:39;;;;;;;8.88;2.70;;;6.20;99.90;;;;;;4982046;28;20096;-78
2022/12/30 10:31:07;;;;;;;5.78;2.50;;;6.20;99.90;;;;;;4998129;28;20094;-78
2022/12/30 10:33:36;;;;;;;6.78;2.40;;;6.30;99.90;;;;;;4980709;28;20074;-79
2022/12/30 10:36:39;;;;;;;7.32;2.60;;;6.30;99.90;;;;;;4982966;28;20420;-78
2022/12/30 10:39:16;;;;;;;8.68;2.70;;;6.30;99.90;;;;;;4993542;28;20519;-78
2022/12/30 10:42:00;;;;;;;11.73;3.20;;;6.40;99.90;;;;;;4998325;28;20099;-78
2022/12/30 10:44:32;;;;;;;12.48;2.88;;;6.40;99.90;;;;;;4999804;28;20046;-78
2022/12/30 10:47:41;;;;;;;8.30;2.70;;;6.50;99.90;;;;;;4998705;28;20042;-78
2022/12/30 10:50:36;;;;;;;6.10;2.38;;;6.50;99.90;;;;;;5000110;28;20038;-78
2022/12/30 10:53:03;;;;;;;7.80;2.50;;;6.50;99.90;;;;;;4982889;28;20115;-78
2022/12/30 10:55:36;;;;;;;9.15;3.22;;;6.50;99.90;;;;;;4984694;28;20039;-79
2022/12/30 10:58:05;;;;;;;7.88;2.42;;;6.60;99.90;;;;;;4999651;28;20050;-77
2022/12/30 11:00:40;;;;;;;5.68;2.20;;;6.50;99.90;;;;;;5000672;28;20042;-78
2022/12/30 11:03:26;;;;;;;8.60;2.58;;;6.60;99.90;;;;;;5000048;28;20432;-78
2022/12/30 11:05:52;;;;;;;6.80;2.50;;;6.60;99.90;;;;;;5000135;28;20064;-78
2022/12/30 11:08:29;;;;;;;6.03;2.10;;;6.60;99.90;;;;;;4994901;28;20042;-79
2022/12/30 11:11:00;;;;;;;7.70;2.60;;;6.60;99.90;;;;;;4994396;28;20117;-78
2022/12/30 11:16:11;;;;;;;7.25;2.17;;;6.70;99.90;;;;;;4981578;28;20068;-78
2022/12/30 11:18:37;;;;;;;7.88;2.47;;;6.70;99.90;;;;;;4992339;28;20045;-78
2022/12/30 11:21:06;;;;;;;7.13;2.30;;;6.80;99.90;;;;;;4993307;28;20046;-78
2022/12/30 11:23:35;;;;;;;5.53;1.95;;;6.80;99.90;;;;;;4993319;28;20129;-79
2022/12/30 11:26:05;;;;;;;6.55;1.98;;;6.80;99.90;;;;;;4991207;28;20050;-78
2022/12/30 11:28:37;;;;;;;8.07;2.33;;;6.90;99.90;;;;;;4985100;28;20073;-78
2022/12/30 11:31:12;;;;;;;4.68;1.65;;;6.90;99.90;;;;;;4976466;28;20057;-78
2022/12/30 11:33:51;;;;;;;6.50;1.63;;;6.90;99.90;;;;;;4993740;28;20258;-78
2022/12/30 11:36:29;;;;;;;5.80;1.95;;;7.00;99.90;;;;;;4989835;28;20038;-78
2022/12/30 11:38:57;;;;;;;3.85;1.70;;;7.00;99.90;;;;;;4990224;28;20527;-78
2022/12/30 11:41:34;;;;;;;5.25;1.90;;;7.10;99.90;;;;;;4992997;28;20606;-78
2022/12/30 11:43:59;;;;;;;5.53;1.70;;;7.10;99.90;;;;;;4995877;28;20053;-79
2022/12/30 11:46:32;;;;;;;5.80;1.70;;;7.10;99.90;;;;;;4978277;28;20500;-79
2022/12/30 11:49:01;;;;;;;6.10;2.55;;;7.10;99.90;;;;;;4983619;28;20130;-80
2022/12/30 11:51:31;;;;;;;6.78;2.08;;;7.20;99.90;;;;;;4978755;28;20058;-78
2022/12/30 11:54:14;;;;;;;5.53;1.70;;;7.20;99.90;;;;;;4975417;28;20507;-78
2022/12/30 11:57:03;;;;;;;5.72;2.10;;;7.20;99.90;;;;;;4975911;28;20469;-78
2022/12/30 11:59:35;;;;;;;3.80;1.67;;;7.30;99.90;;;;;;4990077;28;20045;-79
2022/12/30 12:02:05;;;;;;;8.52;1.63;;;7.30;99.90;;;;;;4994796;28;20050;-78
2022/12/30 12:04:38;;;;;;;6.72;1.58;;;7.30;99.90;;;;;;4979425;28;20039;-79
2022/12/30 12:07:16;;;;;;;5.93;1.85;;;7.30;99.90;;;;;;4987019;28;20086;-79
2022/12/30 12:10:05;;;;;;;6.32;2.17;;;7.40;99.90;;;;;;4995838;28;20065;-78
2022/12/30 12:12:55;;;;;;;10.30;5.00;;;7.40;99.90;;;;;;4987779;28;20093;-76
2022/12/30 12:15:44;;;;;;;12.07;6.82;;;7.40;99.90;;;;;;4988319;28;20094;-77
2022/12/30 12:18:37;;;;;;;16.38;13.68;;;7.40;99.90;;;;;;4990785;28;20038;-78
2022/12/30 12:21:25;;;;;;;19.77;16.13;;;7.50;99.90;;;;;;4994879;28;20047;-78
2022/12/30 12:24:32;;;;;;;14.60;11.85;;;7.50;99.90;;;;;;4993941;28;20121;-77
2022/12/30 12:27:05;;;;;;;9.07;5.00;;;7.50;99.90;;;;;;4919284;29;20051;-79
2022/12/30 12:29:33;;;;;;;8.57;3.78;;;7.60;99.90;;;;;;4990852;28;20136;-80
2022/12/30 12:32:51;;;;;;;4.70;1.75;;;7.60;99.90;;;;;;4980278;28;20045;-80
2022/12/30 12:35:41;;;;;;;5.50;2.05;;;7.60;99.90;;;;;;4940170;29;20031;-80
2022/12/30 12:38:09;;;;;;;5.28;1.48;;;7.60;99.90;;;;;;4940061;29;20555;-80
2022/12/30 12:40:53;;;;;;;5.18;1.70;;;7.70;99.90;;;;;;4966588;28;20055;-80
2022/12/30 12:43:23;;;;;;;4.93;1.60;;;7.70;99.90;;;;;;4996467;28;20042;-80
2022/12/30 12:45:54;;;;;;;6.53;1.60;;;7.80;99.90;;;;;;4978831;28;20038;-81
2022/12/30 12:48:20;;;;;;;4.05;1.40;;;7.80;99.90;;;;;;4982058;28;20112;-79
2022/12/30 12:50:51;;;;;;;6.72;1.65;;;7.80;99.90;;;;;;4980965;28;20509;-80
2022/12/30 12:53:32;;;;;;;7.68;1.70;;;7.80;99.90;;;;;;4996071;28;20072;-80
2022/12/30 12:56:01;;;;;;;7.38;1.45;;;7.90;99.90;;;;;;4972479;28;20046;-80
2022/12/30 12:58:35;;;;;;;5.25;1.77;;;7.90;99.90;;;;;;4980587;28;20046;-80
2022/12/30 13:01:31;;;;;;;5.53;1.40;;;7.90;99.90;;;;;;4996738;28;20393;-79
2022/12/30 13:04:35;;;;;;;7.38;1.50;;;7.90;99.90;;;;;;4977254;28;20050;-80
2022/12/30 13:07:39;;;;;;;3.92;1.50;;;7.90;99.90;;;;;;4987555;28;20497;-80
2022/12/30 13:10:13;;;;;;;;;;;7.90;99.90;;;;;;4994831;28;20046;-80
2022/12/30 13:12:47;;;;;;;4.15;1.40;;;8.00;99.90;;;;;;4996427;28;19925;-80
2022/12/30 13:15:46;;;;;;;6.03;1.30;;;8.00;99.90;;;;;;4989023;28;20547;-80
2022/12/30 13:18:18;;;;;;;5.75;1.48;;;8.00;99.90;;;;;;4986939;28;20046;-81
2022/12/30 13:21:01;;;;;;;6.28;1.65;;;8.00;99.90;;;;;;4999181;28;20121;-80
2022/12/30 13:23:32;;;;;;;3.85;1.20;;;8.10;99.90;;;;;;4990333;28;20556;-84
2022/12/30 13:26:00;;;;;;;3.95;1.33;;;8.10;99.90;;;;;;4969159;28;20085;-84
2022/12/30 13:28:28;;;;;;;4.75;1.20;;;8.00;99.90;;;;;;4989350;28;20073;-84
2022/12/30 13:31:20;;;;;;;5.15;1.10;;;8.10;99.90;;;;;;4990001;28;20046;-84
2022/12/30 13:33:57;;;;;;;5.25;1.80;;;8.10;99.90;;;;;;4979410;28;20069;-84
2022/12/30 13:36:37;;;;;;;5.65;1.50;;;8.20;99.90;;;;;;4994368;28;20125;-84
2022/12/30 13:39:08;;;;;;;4.95;1.77;;;8.20;99.90;;;;;;4999017;28;20871;-85
2022/12/30 13:41:48;;;;;;;6.78;1.30;;;8.20;99.90;;;;;;4995606;28;20073;-84
2022/12/30 13:44:18;;;;;;;5.50;1.70;;;8.30;99.90;;;;;;4979832;28;20524;-84
2022/12/30 13:46:50;;;;;;;3.72;1.20;;;8.40;99.90;;;;;;4979509;28;20129;-85
2022/12/30 13:49:29;;;;;;;4.93;1.38;;;8.40;99.90;;;;;;4979988;28;20042;-84
2022/12/30 13:52:01;;;;;;;3.83;1.40;;;8.40;99.90;;;;;;4995740;28;20042;-84
2022/12/30 13:54:28;;;;;;;5.13;1.40;;;8.40;99.90;;;;;;4979764;28;20050;-84
2022/12/30 13:56:58;;;;;;;9.85;1.80;;;8.40;99.90;;;;;;4978017;28;20295;-86
2022/12/30 13:59:36;;;;;;;5.25;1.70;;;8.40;99.90;;;;;;4966367;28;20046;-83
2022/12/30 14:02:20;;;;;;;4.60;1.60;;;8.40;99.90;;;;;;4978079;28;20100;-83
2022/12/30 14:04:56;;;;;;;5.95;2.60;;;8.30;99.90;;;;;;4979977;28;20381;-84
2022/12/30 14:07:42;;;;;;;4.93;1.40;;;8.30;99.90;;;;;;4969719;28;20030;-83
2022/12/30 14:10:17;;;;;;;5.93;1.58;;;8.20;99.90;;;;;;4995603;28;20082;-84